sensor_id;sensor_type;location;lat;lon;timestamp;pressure;altitude;pressure_sealevel;temperature;humidity
6778;BME280;3426;52.244;10.534;2023-04-01T00:01:05;98707.06;;;14.04;69.61
6778;BME280;3426;52.244;10.534;2023-04-01T00:03:32;98711.47;;;14.13;69.52
6778;BME280;3426;52.244;10.534;2023-04-01T00:06:00;98704.00;;;14.17;68.88
6778;BME280;3426;52.244;10.534;2023-04-01T00:08:27;98707.66;;;14.16;69.02
6778;BME280;3426;52.244;10.534;2023-04-01T00:10:54;98708.25;;;14.27;68.88
6778;BME280;3426;52.244;10.534;2023-04-01T00:13:21;98699.97;;;14.30;68.75
6778;BME280;3426;52.244;10.534;2023-04-01T00:15:47;98707.78;;;14.32;68.71
6778;BME280;3426;52.244;10.534;2023-04-01T00:18:14;98702.16;;;14.35;68.03
6778;BME280;3426;52.244;10.534;2023-04-01T00:20:48;98699.00;;;14.40;68.05
6778;BME280;3426;52.244;10.534;2023-04-01T00:23:15;98705.38;;;14.03;68.68
6778;BME280;3426;52.244;10.534;2023-04-01T00:25:43;98697.63;;;13.92;69.17
6778;BME280;3426;52.244;10.534;2023-04-01T00:28:10;98706.22;;;14.03;68.71
6778;BME280;3426;52.244;10.534;2023-04-01T00:30:37;98707.00;;;13.96;68.08
6778;BME280;3426;52.244;10.534;2023-04-01T00:33:04;98700.66;;;14.15;67.85
6778;BME280;3426;52.244;10.534;2023-04-01T00:35:31;98701.19;;;14.00;67.67
6778;BME280;3426;52.244;10.534;2023-04-01T00:37:59;98698.28;;;14.12;67.38
6778;BME280;3426;52.244;10.534;2023-04-01T00:40:38;98702.19;;;13.99;68.58
6778;BME280;3426;52.244;10.534;2023-04-01T00:43:14;98706.56;;;14.26;66.92
6778;BME280;3426;52.244;10.534;2023-04-01T00:45:42;98702.09;;;14.09;66.98
6778;BME280;3426;52.244;10.534;2023-04-01T00:48:10;98697.22;;;14.22;66.43
6778;BME280;3426;52.244;10.534;2023-04-01T00:50:40;98697.66;;;14.18;66.85
6778;BME280;3426;52.244;10.534;2023-04-01T00:53:07;98700.97;;;13.94;69.52
6778;BME280;3426;52.244;10.534;2023-04-01T00:55:39;98692.38;;;13.82;68.24
6778;BME280;3426;52.244;10.534;2023-04-01T00:58:12;98690.47;;;13.92;68.96
6778;BME280;3426;52.244;10.534;2023-04-01T01:00:40;98698.53;;;14.00;68.31
6778;BME280;3426;52.244;10.534;2023-04-01T01:03:07;98696.41;;;13.86;68.63
6778;BME280;3426;52.244;10.534;2023-04-01T01:11:34;98699.91;;;13.87;67.96
6778;BME280;3426;52.244;10.534;2023-04-01T01:16:54;98695.75;;;14.28;67.04
6778;BME280;3426;52.244;10.534;2023-04-01T01:19:44;98691.88;;;14.22;66.22
6778;BME280;3426;52.244;10.534;2023-04-01T01:24:54;98699.13;;;14.30;65.79
6778;BME280;3426;52.244;10.534;2023-04-01T01:27:24;98693.34;;;14.17;67.24
6778;BME280;3426;52.244;10.534;2023-04-01T01:32:50;98688.56;;;14.20;66.94
6778;BME280;3426;52.244;10.534;2023-04-01T01:35:37;98702.09;;;14.09;66.74
6778;BME280;3426;52.244;10.534;2023-04-01T01:38:11;98692.38;;;14.00;68.72
6778;BME280;3426;52.244;10.534;2023-04-01T01:40:43;98697.19;;;13.96;67.79
6778;BME280;3426;52.244;10.534;2023-04-01T01:43:14;98697.31;;;14.13;67.15
6778;BME280;3426;52.244;10.534;2023-04-01T01:45:46;98694.34;;;14.16;67.26
6778;BME280;3426;52.244;10.534;2023-04-01T01:48:16;98700.91;;;13.86;68.21
6778;BME280;3426;52.244;10.534;2023-04-01T01:50:44;98701.06;;;13.84;69.13
6778;BME280;3426;52.244;10.534;2023-04-01T01:53:13;98694.97;;;13.92;67.79
6778;BME280;3426;52.244;10.534;2023-04-01T01:55:42;98705.91;;;13.89;68.23
6778;BME280;3426;52.244;10.534;2023-04-01T02:01:11;98699.28;;;13.93;69.28
6778;BME280;3426;52.244;10.534;2023-04-01T02:03:40;98707.09;;;14.12;68.57
6778;BME280;3426;52.244;10.534;2023-04-01T02:06:13;98706.59;;;14.09;68.14
6778;BME280;3426;52.244;10.534;2023-04-01T02:08:47;98706.34;;;14.20;68.34
6778;BME280;3426;52.244;10.534;2023-04-01T02:11:17;98708.09;;;14.11;68.50
6778;BME280;3426;52.244;10.534;2023-04-01T02:13:52;98711.00;;;14.00;68.45
6778;BME280;3426;52.244;10.534;2023-04-01T02:16:35;98708.13;;;13.93;68.67
6778;BME280;3426;52.244;10.534;2023-04-01T02:19:04;98714.38;;;13.84;69.05
6778;BME280;3426;52.244;10.534;2023-04-01T02:21:35;98713.28;;;13.95;69.07
6778;BME280;3426;52.244;10.534;2023-04-01T02:24:06;98708.22;;;14.01;69.38
6778;BME280;3426;52.244;10.534;2023-04-01T02:26:34;98702.50;;;13.96;69.13
6778;BME280;3426;52.244;10.534;2023-04-01T02:29:01;98706.59;;;13.73;70.19
6778;BME280;3426;52.244;10.534;2023-04-01T02:31:30;98713.28;;;13.77;69.96
6778;BME280;3426;52.244;10.534;2023-04-01T02:33:58;98710.53;;;14.04;69.39
6778;BME280;3426;52.244;10.534;2023-04-01T02:36:25;98713.59;;;14.10;69.63
6778;BME280;3426;52.244;10.534;2023-04-01T02:38:52;98718.25;;;14.08;69.45
6778;BME280;3426;52.244;10.534;2023-04-01T02:41:20;98715.03;;;14.04;69.47
6778;BME280;3426;52.244;10.534;2023-04-01T02:43:47;98714.88;;;14.05;69.42
6778;BME280;3426;52.244;10.534;2023-04-01T02:46:13;98726.69;;;13.85;70.53
6778;BME280;3426;52.244;10.534;2023-04-01T02:48:40;98713.38;;;14.03;69.96
6778;BME280;3426;52.244;10.534;2023-04-01T02:51:07;98720.06;;;14.07;69.29
6778;BME280;3426;52.244;10.534;2023-04-01T02:53:34;98726.34;;;13.88;69.65
6778;BME280;3426;52.244;10.534;2023-04-01T02:56:00;98720.75;;;13.91;70.65
6778;BME280;3426;52.244;10.534;2023-04-01T02:58:27;98721.56;;;13.92;69.66
6778;BME280;3426;52.244;10.534;2023-04-01T03:00:53;98716.88;;;14.03;69.73
6778;BME280;3426;52.244;10.534;2023-04-01T03:03:20;98726.13;;;13.99;70.19
6778;BME280;3426;52.244;10.534;2023-04-01T03:05:46;98716.47;;;13.98;69.33
6778;BME280;3426;52.244;10.534;2023-04-01T03:08:13;98719.13;;;13.98;69.84
6778;BME280;3426;52.244;10.534;2023-04-01T03:10:39;98729.94;;;13.97;69.67
6778;BME280;3426;52.244;10.534;2023-04-01T03:13:06;98722.47;;;14.00;69.43
6778;BME280;3426;52.244;10.534;2023-04-01T03:15:32;98724.31;;;14.00;70.20
6778;BME280;3426;52.244;10.534;2023-04-01T03:17:59;98716.88;;;14.03;70.06
6778;BME280;3426;52.244;10.534;2023-04-01T03:20:26;98724.84;;;13.86;69.64
6778;BME280;3426;52.244;10.534;2023-04-01T03:22:52;98723.41;;;13.73;69.91
6778;BME280;3426;52.244;10.534;2023-04-01T03:25:19;98719.38;;;13.87;70.01
6778;BME280;3426;52.244;10.534;2023-04-01T03:27:46;98723.47;;;13.99;69.86
6778;BME280;3426;52.244;10.534;2023-04-01T03:30:12;98724.47;;;13.98;70.09
6778;BME280;3426;52.244;10.534;2023-04-01T03:32:39;98730.56;;;14.09;69.75
6778;BME280;3426;52.244;10.534;2023-04-01T03:35:06;98729.50;;;14.01;69.60
6778;BME280;3426;52.244;10.534;2023-04-01T03:37:32;98727.50;;;14.03;70.32
6778;BME280;3426;52.244;10.534;2023-04-01T03:39:59;98731.06;;;13.94;69.88
6778;BME280;3426;52.244;10.534;2023-04-01T03:42:25;98732.91;;;13.94;69.86
6778;BME280;3426;52.244;10.534;2023-04-01T03:44:52;98732.50;;;13.89;69.93
6778;BME280;3426;52.244;10.534;2023-04-01T03:47:18;98729.16;;;13.69;70.96
6778;BME280;3426;52.244;10.534;2023-04-01T03:49:45;98736.75;;;13.64;70.66
6778;BME280;3426;52.244;10.534;2023-04-01T03:52:11;98735.38;;;13.60;71.14
6778;BME280;3426;52.244;10.534;2023-04-01T03:54:38;98744.28;;;13.68;71.14
6778;BME280;3426;52.244;10.534;2023-04-01T03:57:05;98742.28;;;13.52;72.05
6778;BME280;3426;52.244;10.534;2023-04-01T03:59:32;98737.59;;;13.82;70.07
6778;BME280;3426;52.244;10.534;2023-04-01T04:01:58;98743.53;;;13.76;70.99
6778;BME280;3426;52.244;10.534;2023-04-01T04:04:25;98740.78;;;13.68;71.15
6778;BME280;3426;52.244;10.534;2023-04-01T04:06:52;98747.72;;;13.78;70.53
6778;BME280;3426;52.244;10.534;2023-04-01T04:09:18;98746.41;;;13.65;71.04
6778;BME280;3426;52.244;10.534;2023-04-01T04:11:45;98742.22;;;13.62;70.95
6778;BME280;3426;52.244;10.534;2023-04-01T04:14:11;98744.25;;;13.50;71.41
6778;BME280;3426;52.244;10.534;2023-04-01T04:16:38;98744.97;;;13.43;72.05
6778;BME280;3426;52.244;10.534;2023-04-01T04:19:05;98748.16;;;13.56;71.66
6778;BME280;3426;52.244;10.534;2023-04-01T04:21:31;98743.94;;;13.53;72.10
6778;BME280;3426;52.244;10.534;2023-04-01T04:23:59;98753.34;;;13.75;71.22
6778;BME280;3426;52.244;10.534;2023-04-01T04:26:26;98754.38;;;13.65;71.13
6778;BME280;3426;52.244;10.534;2023-04-01T04:28:54;98754.97;;;13.59;72.15
6778;BME280;3426;52.244;10.534;2023-04-01T04:31:23;98756.16;;;13.46;72.06
6778;BME280;3426;52.244;10.534;2023-04-01T04:33:50;98754.53;;;13.63;71.49
6778;BME280;3426;52.244;10.534;2023-04-01T04:36:18;98757.63;;;13.59;71.42
6778;BME280;3426;52.244;10.534;2023-04-01T04:38:45;98763.03;;;13.67;71.54
6778;BME280;3426;52.244;10.534;2023-04-01T04:41:13;98760.94;;;13.70;70.85
6778;BME280;3426;52.244;10.534;2023-04-01T04:43:40;98765.03;;;13.65;71.40
6778;BME280;3426;52.244;10.534;2023-04-01T04:46:08;98763.78;;;13.59;71.62
6778;BME280;3426;52.244;10.534;2023-04-01T04:48:35;98769.31;;;13.48;72.61
6778;BME280;3426;52.244;10.534;2023-04-01T04:51:02;98767.19;;;13.51;71.88
6778;BME280;3426;52.244;10.534;2023-04-01T04:53:29;98768.03;;;13.52;72.02
6778;BME280;3426;52.244;10.534;2023-04-01T04:55:55;98775.03;;;13.53;71.59
6778;BME280;3426;52.244;10.534;2023-04-01T04:58:22;98764.47;;;13.61;71.33
6778;BME280;3426;52.244;10.534;2023-04-01T05:00:49;98774.78;;;13.46;71.57
6778;BME280;3426;52.244;10.534;2023-04-01T05:03:15;98771.78;;;13.59;71.97
6778;BME280;3426;52.244;10.534;2023-04-01T05:05:52;98776.41;;;13.30;72.74
6778;BME280;3426;52.244;10.534;2023-04-01T05:08:19;98778.66;;;13.24;72.88
6778;BME280;3426;52.244;10.534;2023-04-01T05:10:46;98778.75;;;13.33;72.15
6778;BME280;3426;52.244;10.534;2023-04-01T05:13:12;98775.38;;;13.40;71.84
6778;BME280;3426;52.244;10.534;2023-04-01T05:15:39;98778.25;;;13.57;71.22
6778;BME280;3426;52.244;10.534;2023-04-01T05:18:06;98774.91;;;13.72;70.58
6778;BME280;3426;52.244;10.534;2023-04-01T05:20:32;98781.09;;;13.73;69.98
6778;BME280;3426;52.244;10.534;2023-04-01T05:22:59;98781.81;;;13.65;70.18
6778;BME280;3426;52.244;10.534;2023-04-01T05:25:26;98779.91;;;13.58;71.10
6778;BME280;3426;52.244;10.534;2023-04-01T05:27:53;98780.91;;;13.57;71.20
6778;BME280;3426;52.244;10.534;2023-04-01T05:30:20;98789.00;;;13.55;71.06
6778;BME280;3426;52.244;10.534;2023-04-01T05:32:46;98791.53;;;13.57;71.28
6778;BME280;3426;52.244;10.534;2023-04-01T05:35:13;98786.28;;;13.37;71.42
6778;BME280;3426;52.244;10.534;2023-04-01T05:37:39;98787.28;;;13.36;71.83
6778;BME280;3426;52.244;10.534;2023-04-01T05:40:06;98793.84;;;13.42;70.86
6778;BME280;3426;52.244;10.534;2023-04-01T05:42:33;98785.72;;;13.71;70.64
6778;BME280;3426;52.244;10.534;2023-04-01T05:45:03;98794.59;;;13.62;70.34
6778;BME280;3426;52.244;10.534;2023-04-01T05:47:30;98797.09;;;13.63;71.86
6778;BME280;3426;52.244;10.534;2023-04-01T05:49:56;98804.56;;;13.77;71.00
6778;BME280;3426;52.244;10.534;2023-04-01T05:52:23;98800.19;;;13.59;70.90
6778;BME280;3426;52.244;10.534;2023-04-01T05:54:50;98797.66;;;13.30;72.28
6778;BME280;3426;52.244;10.534;2023-04-01T05:57:17;98804.06;;;13.37;71.90
6778;BME280;3426;52.244;10.534;2023-04-01T05:59:43;98807.91;;;13.24;72.74
6778;BME280;3426;52.244;10.534;2023-04-01T06:02:10;98808.72;;;13.62;72.16
6778;BME280;3426;52.244;10.534;2023-04-01T06:04:38;98801.81;;;13.42;71.95
6778;BME280;3426;52.244;10.534;2023-04-01T06:07:11;98817.41;;;13.17;72.77
6778;BME280;3426;52.244;10.534;2023-04-01T06:09:38;98811.69;;;13.22;73.03
6778;BME280;3426;52.244;10.534;2023-04-01T06:12:27;98817.31;;;13.56;71.50
6778;BME280;3426;52.244;10.534;2023-04-01T06:15:23;98815.94;;;13.42;72.08
6778;BME280;3426;52.244;10.534;2023-04-01T06:18:03;98817.75;;;13.42;72.78
6778;BME280;3426;52.244;10.534;2023-04-01T06:26:39;98822.31;;;13.59;72.48
6778;BME280;3426;52.244;10.534;2023-04-01T06:48:30;98834.81;;;13.76;72.76
6778;BME280;3426;52.244;10.534;2023-04-01T06:54:13;98836.75;;;13.57;73.12
6778;BME280;3426;52.244;10.534;2023-04-01T06:56:44;98842.16;;;13.65;73.13
6778;BME280;3426;52.244;10.534;2023-04-01T06:59:15;98833.59;;;14.16;71.74
6778;BME280;3426;52.244;10.534;2023-04-01T07:02:03;98840.34;;;13.93;71.84
6778;BME280;3426;52.244;10.534;2023-04-01T07:04:36;98837.53;;;13.94;72.45
6778;BME280;3426;52.244;10.534;2023-04-01T07:07:33;98841.88;;;13.68;72.96
6778;BME280;3426;52.244;10.534;2023-04-01T07:09:57;98850.53;;;13.70;72.94
6778;BME280;3426;52.244;10.534;2023-04-01T07:15:02;98844.91;;;14.00;72.39
6778;BME280;3426;52.244;10.534;2023-04-01T07:17:32;98842.44;;;14.17;71.28
6778;BME280;3426;52.244;10.534;2023-04-01T07:20:20;98842.16;;;14.20;71.77
6778;BME280;3426;52.244;10.534;2023-04-01T07:22:51;98846.06;;;13.70;72.47
6778;BME280;3426;52.244;10.534;2023-04-01T07:25:23;98851.72;;;14.13;71.64
6778;BME280;3426;52.244;10.534;2023-04-01T07:28:10;98855.94;;;14.05;71.48
6778;BME280;3426;52.244;10.534;2023-04-01T07:33:55;98851.97;;;14.91;69.88
6778;BME280;3426;52.244;10.534;2023-04-01T07:44:59;98863.13;;;15.38;67.54
6778;BME280;3426;52.244;10.534;2023-04-01T07:47:34;98868.38;;;15.82;67.34
6778;BME280;3426;52.244;10.534;2023-04-01T07:50:18;98870.03;;;16.17;65.12
6778;BME280;3426;52.244;10.534;2023-04-01T07:53:16;98865.25;;;16.45;66.29
6778;BME280;3426;52.244;10.534;2023-04-01T07:58:44;98873.44;;;15.93;64.05
6778;BME280;3426;52.244;10.534;2023-04-01T08:06:39;98883.63;;;16.48;63.34
6778;BME280;3426;52.244;10.534;2023-04-01T08:12:18;98889.97;;;15.88;67.12
6778;BME280;3426;52.244;10.534;2023-04-01T08:15:10;98895.25;;;16.23;62.97
6778;BME280;3426;52.244;10.534;2023-04-01T08:20:48;98901.13;;;16.34;63.36
6778;BME280;3426;52.244;10.534;2023-04-01T08:23:26;98906.19;;;15.69;64.34
6778;BME280;3426;52.244;10.534;2023-04-01T08:28:27;98907.72;;;15.54;65.18
6778;BME280;3426;52.244;10.534;2023-04-01T08:33:28;98915.88;;;15.44;65.74
6778;BME280;3426;52.244;10.534;2023-04-01T08:41:06;98909.75;;;15.78;66.25
6778;BME280;3426;52.244;10.534;2023-04-01T08:44:43;98905.63;;;15.92;66.99
6778;BME280;3426;52.244;10.534;2023-04-01T08:46:47;98907.03;;;15.70;67.74
6778;BME280;3426;52.244;10.534;2023-04-01T08:57:15;98910.53;;;16.04;64.72
6778;BME280;3426;52.244;10.534;2023-04-01T09:22:50;98918.06;;;16.59;60.56
6778;BME280;3426;52.244;10.534;2023-04-01T09:31:15;98929.06;;;16.48;58.74
6778;BME280;3426;52.244;10.534;2023-04-01T09:34:26;98920.72;;;16.59;57.98
6778;BME280;3426;52.244;10.534;2023-04-01T09:39:35;98927.84;;;17.09;57.92
6778;BME280;3426;52.244;10.534;2023-04-01T09:47:55;98937.25;;;16.55;55.63
6778;BME280;3426;52.244;10.534;2023-04-01T10:10:52;98944.03;;;17.00;53.84
6778;BME280;3426;52.244;10.534;2023-04-01T10:22:32;98956.09;;;16.03;59.81
6778;BME280;3426;52.244;10.534;2023-04-01T10:25:29;98961.13;;;16.48;60.75
6778;BME280;3426;52.244;10.534;2023-04-01T10:28:23;98960.84;;;15.83;61.44
6778;BME280;3426;52.244;10.534;2023-04-01T10:36:54;98954.88;;;16.90;57.88
6778;BME280;3426;52.244;10.534;2023-04-01T10:59:36;98985.34;;;16.47;60.22
6778;BME280;3426;52.244;10.534;2023-04-01T11:04:48;98988.56;;;16.58;58.44
6778;BME280;3426;52.244;10.534;2023-04-01T11:16:30;98995.84;;;16.06;60.48
6778;BME280;3426;52.244;10.534;2023-04-01T11:21:53;99004.47;;;16.68;59.41
6778;BME280;3426;52.244;10.534;2023-04-01T11:35:40;99003.41;;;16.19;58.07
6778;BME280;3426;52.244;10.534;2023-04-01T11:43:44;99007.75;;;17.04;55.60
6778;BME280;3426;52.244;10.534;2023-04-01T11:49:50;99009.38;;;16.47;56.93
6778;BME280;3426;52.244;10.534;2023-04-01T11:55:44;99024.31;;;16.57;56.88
6778;BME280;3426;52.244;10.534;2023-04-01T11:58:41;99031.22;;;16.34;55.11
6778;BME280;3426;52.244;10.534;2023-04-01T12:01:15;99024.06;;;16.42;55.00
6778;BME280;3426;52.244;10.534;2023-04-01T12:04:04;99036.59;;;16.42;58.16
6778;BME280;3426;52.244;10.534;2023-04-01T12:13:16;99035.69;;;15.55;59.26
6778;BME280;3426;52.244;10.534;2023-04-01T12:17:02;99042.00;;;15.72;59.86
6778;BME280;3426;52.244;10.534;2023-04-01T12:39:26;99061.13;;;15.85;62.21
6778;BME280;3426;52.244;10.534;2023-04-01T12:42:07;99061.03;;;15.95;62.29
6778;BME280;3426;52.244;10.534;2023-04-01T12:44:59;99065.13;;;14.82;66.73
6778;BME280;3426;52.244;10.534;2023-04-01T12:56:21;99084.63;;;15.64;63.72
6778;BME280;3426;52.244;10.534;2023-04-01T13:04:41;99084.66;;;14.36;69.17
6778;BME280;3426;52.244;10.534;2023-04-01T13:27:30;99109.88;;;14.79;70.08
6778;BME280;3426;52.244;10.534;2023-04-01T13:33:13;99117.47;;;15.29;70.44
6778;BME280;3426;52.244;10.534;2023-04-01T13:39:29;99124.56;;;14.93;71.76
6778;BME280;3426;52.244;10.534;2023-04-01T13:54:11;99159.41;;;13.28;83.33
6778;BME280;3426;52.244;10.534;2023-04-01T14:02:35;99156.38;;;13.12;81.46
6778;BME280;3426;52.244;10.534;2023-04-01T14:11:11;99170.75;;;12.38;84.12
6778;BME280;3426;52.244;10.534;2023-04-01T14:28:26;99199.53;;;10.70;90.64
6778;BME280;3426;52.244;10.534;2023-04-01T14:31:15;99196.47;;;11.41;87.89
6778;BME280;3426;52.244;10.534;2023-04-01T14:33:56;99219.41;;;10.64;90.45
6778;BME280;3426;52.244;10.534;2023-04-01T14:39:48;99219.63;;;11.06;90.32
6778;BME280;3426;52.244;10.534;2023-04-01T14:51:31;99241.28;;;10.55;91.13
6778;BME280;3426;52.244;10.534;2023-04-01T14:56:43;99239.31;;;10.34;91.32
6778;BME280;3426;52.244;10.534;2023-04-01T14:59:25;99265.25;;;10.65;90.78
6778;BME280;3426;52.244;10.534;2023-04-01T15:24:51;99300.06;;;10.12;89.69
6778;BME280;3426;52.244;10.534;2023-04-01T15:27:45;99302.63;;;10.84;87.35
6778;BME280;3426;52.244;10.534;2023-04-01T15:30:30;99322.03;;;10.60;88.84
6778;BME280;3426;52.244;10.534;2023-04-01T15:35:51;99325.91;;;9.22;92.71
6778;BME280;3426;52.244;10.534;2023-04-01T15:38:41;99321.53;;;9.60;92.07
6778;BME280;3426;52.244;10.534;2023-04-01T15:41:35;99338.75;;;10.26;91.21
6778;BME280;3426;52.244;10.534;2023-04-01T15:55:24;99351.25;;;9.50;91.06
6778;BME280;3426;52.244;10.534;2023-04-01T15:58:15;99360.50;;;9.81;90.38
6778;BME280;3426;52.244;10.534;2023-04-01T16:00:49;99356.91;;;9.70;89.06
6778;BME280;3426;52.244;10.534;2023-04-01T16:03:47;99380.34;;;9.38;90.25
6778;BME280;3426;52.244;10.534;2023-04-01T16:06:46;99376.59;;;9.66;89.60
6778;BME280;3426;52.244;10.534;2023-04-01T16:16:58;99387.09;;;9.29;89.57
6778;BME280;3426;52.244;10.534;2023-04-01T16:19:37;99399.88;;;10.10;86.30
6778;BME280;3426;52.244;10.534;2023-04-01T16:22:23;99398.19;;;9.21;88.46
6778;BME280;3426;52.244;10.534;2023-04-01T16:29:53;99414.41;;;8.50;92.79
6778;BME280;3426;52.244;10.534;2023-04-01T16:46:35;99447.25;;;8.32;92.84
6778;BME280;3426;52.244;10.534;2023-04-01T16:51:52;99458.72;;;8.72;92.17
6778;BME280;3426;52.244;10.534;2023-04-01T16:56:50;99469.72;;;8.79;90.11
6778;BME280;3426;52.244;10.534;2023-04-01T16:59:27;99474.94;;;8.39;92.77
6778;BME280;3426;52.244;10.534;2023-04-01T17:02:03;99488.81;;;8.42;92.20
6778;BME280;3426;52.244;10.534;2023-04-01T17:04:47;99488.72;;;8.71;89.56
6778;BME280;3426;52.244;10.534;2023-04-01T17:10:25;99499.34;;;8.42;92.89
6778;BME280;3426;52.244;10.534;2023-04-01T17:19:01;99521.97;;;9.00;90.08
6778;BME280;3426;52.244;10.534;2023-04-01T17:30:21;99536.41;;;8.12;92.15
6778;BME280;3426;52.244;10.534;2023-04-01T17:33:01;99546.75;;;7.73;92.46
6778;BME280;3426;52.244;10.534;2023-04-01T17:35:35;99560.75;;;7.73;92.37
6778;BME280;3426;52.244;10.534;2023-04-01T17:38:23;99544.25;;;8.69;87.39
6778;BME280;3426;52.244;10.534;2023-04-01T17:51:55;99576.03;;;8.11;89.01
6778;BME280;3426;52.244;10.534;2023-04-01T18:03:00;99601.44;;;7.39;92.18
6778;BME280;3426;52.244;10.534;2023-04-01T18:11:15;99620.44;;;7.44;90.53
6778;BME280;3426;52.244;10.534;2023-04-01T18:22:58;99654.13;;;6.91;91.76
6778;BME280;3426;52.244;10.534;2023-04-01T18:25:34;99663.88;;;7.97;88.35
6778;BME280;3426;52.244;10.534;2023-04-01T18:30:44;99675.69;;;6.82;90.40
6778;BME280;3426;52.244;10.534;2023-04-01T18:38:31;99685.06;;;7.04;91.05
6778;BME280;3426;52.244;10.534;2023-04-01T18:43:56;99706.63;;;7.10;90.61
6778;BME280;3426;52.244;10.534;2023-04-01T18:49:39;99709.47;;;6.90;92.30
6778;BME280;3426;52.244;10.534;2023-04-01T18:52:24;99713.13;;;7.96;88.65
6778;BME280;3426;52.244;10.534;2023-04-01T18:57:49;99727.44;;;7.77;90.09
6778;BME280;3426;52.244;10.534;2023-04-01T19:00:25;99739.91;;;7.43;89.62
6778;BME280;3426;52.244;10.534;2023-04-01T19:03:10;99742.78;;;7.07;91.93
6778;BME280;3426;52.244;10.534;2023-04-01T19:05:41;99744.25;;;7.12;89.34
6778;BME280;3426;52.244;10.534;2023-04-01T19:08:37;99751.03;;;8.10;87.60
6778;BME280;3426;52.244;10.534;2023-04-01T19:11:30;99762.50;;;7.79;87.39
6778;BME280;3426;52.244;10.534;2023-04-01T19:17:07;99787.06;;;7.95;84.23
6778;BME280;3426;52.244;10.534;2023-04-01T19:27:51;99778.66;;;7.73;84.24
6778;BME280;3426;52.244;10.534;2023-04-01T19:30:51;99807.16;;;7.50;89.32
6778;BME280;3426;52.244;10.534;2023-04-01T19:36:50;99802.03;;;6.82;90.51
6778;BME280;3426;52.244;10.534;2023-04-01T19:39:52;99825.28;;;6.90;90.30
6778;BME280;3426;52.244;10.534;2023-04-01T19:42:47;99827.03;;;6.56;90.62
6778;BME280;3426;52.244;10.534;2023-04-01T19:50:42;99849.63;;;6.26;90.72
6778;BME280;3426;52.244;10.534;2023-04-01T19:55:47;99854.09;;;6.24;92.21
6778;BME280;3426;52.244;10.534;2023-04-01T20:00:53;99875.59;;;7.01;89.82
6778;BME280;3426;52.244;10.534;2023-04-01T20:06:19;99887.63;;;6.89;90.35
6778;BME280;3426;52.244;10.534;2023-04-01T20:14:35;99903.47;;;7.05;87.66
6778;BME280;3426;52.244;10.534;2023-04-01T20:17:18;99899.19;;;6.33;89.37
6778;BME280;3426;52.244;10.534;2023-04-01T20:20:15;99916.53;;;6.37;89.11
6778;BME280;3426;52.244;10.534;2023-04-01T20:25:13;99932.91;;;6.25;89.18
6778;BME280;3426;52.244;10.534;2023-04-01T20:27:50;99939.16;;;5.85;90.70
6778;BME280;3426;52.244;10.534;2023-04-01T20:33:20;99941.81;;;6.40;88.73
6778;BME280;3426;52.244;10.534;2023-04-01T20:36:26;99960.78;;;7.00;87.01
6778;BME280;3426;52.244;10.534;2023-04-01T20:50:22;99971.81;;;6.55;88.21
6778;BME280;3426;52.244;10.534;2023-04-01T20:53:04;99984.19;;;6.34;84.40
6778;BME280;3426;52.244;10.534;2023-04-01T20:58:21;99999.81;;;6.56;85.22
6778;BME280;3426;52.244;10.534;2023-04-01T21:16:54;100053.78;;;5.88;85.73
6778;BME280;3426;52.244;10.534;2023-04-01T21:34:25;100088.72;;;6.30;86.07
6778;BME280;3426;52.244;10.534;2023-04-01T21:39:58;100084.59;;;5.43;88.09
6778;BME280;3426;52.244;10.534;2023-04-01T21:42:45;100104.41;;;5.93;87.17
6778;BME280;3426;52.244;10.534;2023-04-01T21:50:44;100112.59;;;5.65;87.88
6778;BME280;3426;52.244;10.534;2023-04-01T21:59:30;100130.44;;;5.36;88.81
6778;BME280;3426;52.244;10.534;2023-04-01T22:07:26;100147.63;;;6.45;85.18
6778;BME280;3426;52.244;10.534;2023-04-01T22:10:03;100156.53;;;5.19;88.83
6778;BME280;3426;52.244;10.534;2023-04-01T22:12:39;100150.94;;;5.48;85.52
6778;BME280;3426;52.244;10.534;2023-04-01T22:15:29;100167.78;;;5.85;85.48
6778;BME280;3426;52.244;10.534;2023-04-01T22:20:38;100170.63;;;6.21;82.17
6778;BME280;3426;52.244;10.534;2023-04-01T22:28:36;100183.28;;;6.71;82.86
6778;BME280;3426;52.244;10.534;2023-04-01T22:31:05;100191.22;;;5.91;83.98
6778;BME280;3426;52.244;10.534;2023-04-01T22:34:34;100202.31;;;5.12;87.46
6778;BME280;3426;52.244;10.534;2023-04-01T22:39:51;100217.91;;;5.80;84.73
6778;BME280;3426;52.244;10.534;2023-04-01T22:42:45;100219.63;;;5.16;85.25
6778;BME280;3426;52.244;10.534;2023-04-01T22:50:21;100237.53;;;5.72;83.57
6778;BME280;3426;52.244;10.534;2023-04-01T22:52:56;100246.50;;;4.77;86.90
6778;BME280;3426;52.244;10.534;2023-04-01T22:55:30;100249.13;;;5.66;85.46
6778;BME280;3426;52.244;10.534;2023-04-01T22:58:05;100256.44;;;5.14;87.50
6778;BME280;3426;52.244;10.534;2023-04-01T23:00:48;100257.69;;;5.04;86.89
6778;BME280;3426;52.244;10.534;2023-04-01T23:03:20;100256.28;;;4.95;87.19
6778;BME280;3426;52.244;10.534;2023-04-01T23:05:53;100255.91;;;4.83;88.32
6778;BME280;3426;52.244;10.534;2023-04-01T23:08:49;100266.16;;;4.89;85.80
6778;BME280;3426;52.244;10.534;2023-04-01T23:20:02;100282.81;;;5.11;83.18
6778;BME280;3426;52.244;10.534;2023-04-01T23:28:25;100296.81;;;4.63;85.38
6778;BME280;3426;52.244;10.534;2023-04-01T23:30:49;100301.28;;;4.85;84.38
6778;BME280;3426;52.244;10.534;2023-04-01T23:33:21;100298.13;;;5.23;83.05
6778;BME280;3426;52.244;10.534;2023-04-01T23:35:54;100306.69;;;4.32;84.73
6778;BME280;3426;52.244;10.534;2023-04-01T23:38:24;100301.03;;;5.38;81.82
6778;BME280;3426;52.244;10.534;2023-04-01T23:40:53;100322.88;;;5.16;82.65
6778;BME280;3426;52.244;10.534;2023-04-01T23:43:29;100314.09;;;4.69;83.01
6778;BME280;3426;52.244;10.534;2023-04-01T23:46:00;100318.47;;;5.40;80.57
6778;BME280;3426;52.244;10.534;2023-04-01T23:48:41;100314.75;;;4.99;82.55
6778;BME280;3426;52.244;10.534;2023-04-01T23:51:29;100338.78;;;4.38;82.87
6778;BME280;3426;52.244;10.534;2023-04-01T23:54:10;100336.31;;;4.84;81.80
6778;BME280;3426;52.244;10.534;2023-04-01T23:56:43;100356.66;;;4.52;82.08
6778;BME280;3426;52.244;10.534;2023-04-01T23:59:16;100362.88;;;4.23;82.84
